createdAt,value
2023-06-13T00:01:49.614Z,101207.03
2023-06-13T00:04:22.540Z,101208.91
2023-06-13T00:06:54.545Z,101197.38
2023-06-13T00:09:23.860Z,101221.44
2023-06-13T00:11:51.140Z,101206.38
2023-06-13T00:14:19.074Z,101185.13
2023-06-13T00:16:51.402Z,101215.28
2023-06-13T00:19:19.800Z,101136.25
2023-06-13T00:21:46.887Z,101197.75
2023-06-13T00:24:13.756Z,101212.81
2023-06-13T00:26:40.580Z,101205.81
2023-06-13T00:29:07.233Z,101191.44
2023-06-13T00:31:33.967Z,101195.09
2023-06-13T00:34:01.803Z,101220.03
2023-06-13T00:36:28.824Z,101191.53
2023-06-13T00:38:58.759Z,101177.34
2023-06-13T00:41:26.565Z,101223.75
2023-06-13T00:43:53.535Z,101170.38
2023-06-13T00:46:31.368Z,101213.09
2023-06-13T00:48:59.088Z,101209.63
2023-06-13T00:51:29.014Z,101206.25
2023-06-13T00:53:57.604Z,101124.31
2023-06-13T00:56:25.436Z,101137.72
2023-06-13T00:58:56.069Z,101190.38
2023-06-13T01:01:23.769Z,101128.94
2023-06-13T01:03:51.806Z,101124.56
2023-06-13T01:06:18.728Z,101183.25
2023-06-13T01:08:45.948Z,101186.06
2023-06-13T01:11:24.193Z,101188.75
2023-06-13T01:13:58.376Z,101199.47
2023-06-13T01:16:29.616Z,101164.91
2023-06-13T01:18:59.753Z,101178.41
2023-06-13T01:21:31.905Z,101188.28
2023-06-13T01:24:11.257Z,101110.97
2023-06-13T01:26:48.169Z,101184.97
2023-06-13T01:29:18.773Z,101109.44
2023-06-13T01:31:58.177Z,101171.84
2023-06-13T01:34:25.978Z,101172.00
2023-06-13T01:36:53.050Z,101163.13
2023-06-13T01:39:19.783Z,101195.31
2023-06-13T01:41:46.407Z,101165.06
2023-06-13T01:44:18.487Z,101198.16
2023-06-13T01:46:55.727Z,101200.94
2023-06-13T01:49:44.323Z,101204.66
2023-06-13T01:52:34.351Z,101114.78
2023-06-13T01:55:05.143Z,101178.13
2023-06-13T01:57:40.679Z,101119.38
2023-06-13T02:00:10.374Z,101180.97
2023-06-13T02:02:43.228Z,101175.59
2023-06-13T02:05:10.184Z,101180.97
2023-06-13T02:07:38.152Z,101201.56
2023-06-13T02:10:08.616Z,101182.88
2023-06-13T02:12:36.507Z,101175.81
2023-06-13T02:15:04.108Z,101166.97
2023-06-13T02:17:30.963Z,101175.06
2023-06-13T02:19:57.609Z,101192.91
2023-06-13T02:22:24.229Z,101194.72
2023-06-13T02:24:50.873Z,101194.75
2023-06-13T02:27:17.514Z,101173.34
2023-06-13T02:29:47.114Z,101078.91
2023-06-13T02:32:13.737Z,101200.16
2023-06-13T02:34:40.384Z,101157.38
2023-06-13T02:37:07.026Z,101166.28
2023-06-13T02:39:33.656Z,101158.22
2023-06-13T02:42:00.379Z,101170.66
2023-06-13T02:44:27.994Z,101182.22
2023-06-13T02:46:55.998Z,101172.41
2023-06-13T02:49:22.726Z,101093.97
2023-06-13T02:51:49.321Z,101101.94
2023-06-13T02:54:16.298Z,101190.00
2023-06-13T02:56:42.915Z,101169.50
2023-06-13T02:59:09.548Z,101180.16
2023-06-13T03:01:36.481Z,101161.41
2023-06-13T03:04:09.165Z,101153.34
2023-06-13T03:06:37.419Z,101192.59
2023-06-13T03:09:05.657Z,101156.06
2023-06-13T03:11:33.774Z,101185.47
2023-06-13T03:14:00.629Z,101169.38
2023-06-13T03:16:28.790Z,101082.16
2023-06-13T03:18:57.989Z,101168.50
2023-06-13T03:21:24.645Z,101099.09
2023-06-13T03:23:51.320Z,101193.47
2023-06-13T03:26:20.811Z,101176.53
2023-06-13T03:28:47.513Z,101090.16
2023-06-13T03:31:15.910Z,101196.13
2023-06-13T03:33:42.855Z,101192.53
2023-06-13T03:36:09.506Z,101183.66
2023-06-13T03:38:36.129Z,101181.81
2023-06-13T03:41:02.854Z,101178.22
2023-06-13T03:43:29.501Z,101172.91
2023-06-13T03:45:56.690Z,101173.81
2023-06-13T03:48:23.510Z,101157.75
2023-06-13T03:50:50.411Z,101170.19
2023-06-13T03:53:17.060Z,101163.06
2023-06-13T03:55:45.775Z,101194.34
2023-06-13T03:58:13.689Z,101163.97
2023-06-13T04:00:40.571Z,101188.97
2023-06-13T04:03:09.406Z,101165.78
2023-06-13T04:05:36.334Z,101196.13
2023-06-13T04:08:03.592Z,101094.56
2023-06-13T04:10:30.283Z,101172.03
2023-06-13T04:12:58.040Z,101112.41
2023-06-13T04:15:24.690Z,101167.63
2023-06-13T04:17:53.951Z,101179.19
2023-06-13T04:20:25.042Z,101173.00
2023-06-13T04:22:53.296Z,101102.56
2023-06-13T04:25:20.552Z,101177.41
2023-06-13T04:27:49.578Z,101181.88
2023-06-13T04:30:17.035Z,101197.03
2023-06-13T04:32:46.788Z,101188.06
2023-06-13T04:35:17.534Z,101170.22
2023-06-13T04:37:47.500Z,101188.91
2023-06-13T04:40:14.837Z,101188.00
2023-06-13T04:42:48.606Z,101167.50
2023-06-13T04:45:17.120Z,101172.84
2023-06-13T04:47:56.599Z,101158.53
2023-06-13T04:50:26.340Z,101093.50
2023-06-13T04:52:55.326Z,101185.25
2023-06-13T04:55:23.597Z,101177.22
2023-06-13T04:57:50.401Z,101206.59
2023-06-13T05:00:17.742Z,101199.50
2023-06-13T05:02:46.777Z,101197.63
2023-06-13T05:05:17.667Z,101190.47
2023-06-13T05:07:45.076Z,101149.50
2023-06-13T05:10:14.122Z,101181.50
2023-06-13T05:12:42.532Z,101215.22
2023-06-13T05:15:09.294Z,101204.50
2023-06-13T05:17:38.520Z,101200.03
2023-06-13T05:20:06.672Z,101225.72
2023-06-13T05:22:33.704Z,101227.50
2023-06-13T05:25:01.100Z,101141.88
2023-06-13T05:27:28.261Z,101230.81
2023-06-13T05:29:55.197Z,101195.84
2023-06-13T05:32:21.857Z,101198.19
2023-06-13T05:34:48.516Z,101215.47
2023-06-13T05:37:15.985Z,101216.47
2023-06-13T05:39:42.994Z,101134.91
2023-06-13T05:42:09.795Z,101215.09
2023-06-13T05:44:36.368Z,101196.00
2023-06-13T05:47:04.007Z,101161.63
2023-06-13T05:49:30.822Z,101155.81
2023-06-13T05:51:58.154Z,101138.81
2023-06-13T05:54:24.778Z,101195.00
2023-06-13T05:56:51.428Z,101207.59
2023-06-13T05:59:18.404Z,101206.38
2023-06-13T06:01:46.752Z,101221.97
2023-06-13T06:04:13.696Z,101220.28
2023-06-13T06:06:40.483Z,101214.94
2023-06-13T06:09:07.325Z,101167.63
2023-06-13T06:11:34.964Z,101221.50
2023-06-13T06:14:02.445Z,101207.38
2023-06-13T06:16:30.718Z,101202.09
2023-06-13T06:18:57.547Z,101215.06
2023-06-13T06:21:24.413Z,101218.84
2023-06-13T06:23:51.043Z,101158.75
2023-06-13T06:26:17.687Z,101228.16
2023-06-13T06:28:44.384Z,101227.47
2023-06-13T06:31:11.154Z,101222.03
2023-06-13T06:33:37.995Z,101206.75
2023-06-13T06:36:04.699Z,101213.00
2023-06-13T06:38:31.470Z,101230.50
2023-06-13T06:40:58.196Z,101213.41
2023-06-13T06:43:24.786Z,101207.16
2023-06-13T06:45:52.145Z,101234.69
2023-06-13T06:48:18.782Z,101219.84
2023-06-13T06:50:45.564Z,101218.69
2023-06-13T06:53:12.290Z,101226.88
2023-06-13T06:55:38.840Z,101229.16
2023-06-13T06:58:06.103Z,101227.38
2023-06-13T07:00:32.764Z,101241.53
2023-06-13T07:02:59.491Z,101225.16
2023-06-13T07:05:26.452Z,101227.81
2023-06-13T07:07:53.150Z,101231.75
2023-06-13T07:10:19.905Z,101228.41
2023-06-13T07:12:46.581Z,101234.50
2023-06-13T07:15:14.298Z,101231.47
2023-06-13T07:17:41.023Z,101236.06
2023-06-13T07:20:09.758Z,101233.13
2023-06-13T07:22:36.566Z,101229.25
2023-06-13T07:25:04.071Z,101237.47
2023-06-13T07:27:31.284Z,101187.47
2023-06-13T07:29:57.944Z,101234.88
2023-06-13T07:32:24.559Z,101244.91
2023-06-13T07:35:04.924Z,101232.78
2023-06-13T07:37:33.152Z,101235.09
2023-06-13T07:39:59.742Z,101228.91
2023-06-13T07:42:26.294Z,101239.25
2023-06-13T07:44:52.858Z,101235.66
2023-06-13T07:47:19.469Z,101237.69
2023-06-13T07:49:46.366Z,101237.06
2023-06-13T07:52:13.022Z,101196.88
2023-06-13T07:54:39.600Z,101239.19
2023-06-13T07:57:25.612Z,101251.47
2023-06-13T07:59:55.431Z,101190.38
2023-06-13T08:02:22.776Z,101234.47
2023-06-13T08:04:54.411Z,101174.94
2023-06-13T08:07:22.027Z,101220.06
2023-06-13T08:09:48.918Z,101222.94
2023-06-13T08:12:15.777Z,101221.50
2023-06-13T08:14:42.456Z,101211.06
2023-06-13T08:17:09.076Z,101219.81
2023-06-13T08:19:36.007Z,101217.94
2023-06-13T08:22:02.786Z,101220.25
2023-06-13T08:24:29.663Z,101215.31
2023-06-13T08:26:58.525Z,101232.69
2023-06-13T08:29:29.362Z,101224.19
2023-06-13T08:31:56.210Z,101197.63
2023-06-13T08:34:23.545Z,101250.16
2023-06-13T08:36:50.177Z,101221.66
2023-06-13T08:39:17.163Z,101195.38
2023-06-13T08:41:45.128Z,101228.63
2023-06-13T08:44:12.249Z,101150.09
2023-06-13T08:46:38.964Z,101227.53
2023-06-13T08:49:05.665Z,101230.41
2023-06-13T08:51:32.992Z,101228.19
2023-06-13T08:54:01.920Z,101221.38
2023-06-13T08:56:33.527Z,101225.59
2023-06-13T08:59:07.515Z,101199.91
2023-06-13T09:01:37.397Z,101222.94
2023-06-13T09:04:06.022Z,101206.50
2023-06-13T09:06:34.755Z,101221.38
2023-06-13T09:09:02.572Z,101150.28
2023-06-13T09:11:30.067Z,101176.41
2023-06-13T09:13:59.600Z,101208.06
2023-06-13T09:16:26.345Z,101205.34
2023-06-13T09:18:53.395Z,101159.91
2023-06-13T09:21:22.952Z,101180.56
2023-06-13T09:23:50.494Z,101207.97
2023-06-13T09:26:18.035Z,101204.44
2023-06-13T09:28:46.570Z,101205.84
2023-06-13T09:31:13.223Z,101135.53
2023-06-13T09:33:40.799Z,101146.03
2023-06-13T09:36:08.582Z,101197.28
2023-06-13T09:38:37.316Z,101204.59
2023-06-13T09:41:06.054Z,101187.69
2023-06-13T09:43:32.820Z,101138.69
2023-06-13T09:45:59.554Z,101180.84
2023-06-13T09:48:26.228Z,101207.34
2023-06-13T09:50:53.215Z,101201.78
2023-06-13T09:53:20.012Z,101193.97
2023-06-13T09:55:46.973Z,101171.81
2023-06-13T09:58:30.687Z,101193.28
2023-06-13T10:01:01.266Z,101200.50
2023-06-13T10:03:28.884Z,101206.47
2023-06-13T10:06:01.841Z,101197.91
2023-06-13T10:08:28.662Z,101185.09
2023-06-13T10:10:56.054Z,101133.22
2023-06-13T10:13:27.663Z,101185.53
2023-06-13T10:15:58.637Z,101177.16
2023-06-13T10:18:38.450Z,101151.03
2023-06-13T10:21:07.583Z,101175.88
2023-06-13T10:23:43.291Z,101168.56
2023-06-13T10:26:16.206Z,101175.22
2023-06-13T10:29:08.376Z,101179.59
2023-06-13T10:31:47.003Z,101188.88
2023-06-13T10:34:44.111Z,101180.06
2023-06-13T10:37:22.905Z,101165.47
2023-06-13T10:40:20.567Z,101170.22
2023-06-13T10:42:54.720Z,101158.69
2023-06-13T10:45:25.346Z,101114.16
2023-06-13T10:47:54.871Z,101163.94
2023-06-13T10:50:22.316Z,101165.09
2023-06-13T10:52:50.199Z,101111.38
2023-06-13T10:55:27.366Z,101165.69
2023-06-13T10:57:57.662Z,101104.25
2023-06-13T11:00:25.309Z,101163.19
2023-06-13T11:03:11.757Z,101151.97
2023-06-13T11:05:51.455Z,101148.78
2023-06-13T11:08:21.884Z,101158.44
2023-06-13T11:10:50.897Z,101155.34
2023-06-13T11:13:22.205Z,101087.72
2023-06-13T11:15:58.799Z,101136.41
2023-06-13T11:18:26.832Z,101152.63
2023-06-13T11:21:00.745Z,101141.97
2023-06-13T11:23:36.445Z,101145.41
2023-06-13T11:26:04.164Z,101135.47
2023-06-13T11:28:32.024Z,101128.03
2023-06-13T11:31:04.282Z,101107.38
2023-06-13T11:33:40.302Z,101125.81
2023-06-13T11:36:07.853Z,101133.00
2023-06-13T11:38:44.213Z,101070.09
2023-06-13T11:41:12.263Z,101139.06
2023-06-13T11:43:39.379Z,101120.38
2023-06-13T11:46:06.510Z,101070.59
2023-06-13T11:48:50.302Z,101142.09
2023-06-13T11:51:17.818Z,101106.00
2023-06-13T11:53:54.120Z,101105.72
2023-06-13T11:56:22.688Z,101127.88
2023-06-13T11:58:50.864Z,101121.25
2023-06-13T12:01:19.020Z,101044.56
2023-06-13T12:03:47.057Z,101118.34
2023-06-13T12:06:14.436Z,101131.03
2023-06-13T12:08:52.766Z,101114.81
2023-06-13T12:11:26.604Z,101087.72
2023-06-13T12:13:58.316Z,101124.94
2023-06-13T12:16:33.093Z,101124.47
2023-06-13T12:19:01.239Z,101119.22
2023-06-13T12:21:30.428Z,101115.44
2023-06-13T12:23:58.948Z,101067.06
2023-06-13T12:26:32.327Z,101059.16
2023-06-13T12:29:06.989Z,101104.38
2023-06-13T12:31:37.657Z,101109.28
2023-06-13T12:34:14.676Z,101051.53
2023-06-13T12:36:45.738Z,101090.97
2023-06-13T12:39:15.474Z,101100.47
2023-06-13T12:41:48.386Z,101078.41
2023-06-13T12:44:16.019Z,101094.47
2023-06-13T12:46:43.054Z,101101.16
2023-06-13T12:49:11.675Z,101087.28
2023-06-13T12:52:06.582Z,101100.41
2023-06-13T12:54:36.694Z,101079.97
2023-06-13T12:57:08.235Z,101055.75
2023-06-13T12:59:38.591Z,101098.06
2023-06-13T13:02:11.388Z,101065.81
2023-06-13T13:04:41.139Z,101100.69
2023-06-13T13:07:09.441Z,101035.13
2023-06-13T13:09:41.148Z,101080.06
2023-06-13T13:12:10.668Z,101054.66
2023-06-13T13:14:38.356Z,101085.06
2023-06-13T13:17:05.265Z,101076.22
2023-06-13T13:19:33.101Z,101032.44
2023-06-13T13:22:01.930Z,101038.75
2023-06-13T13:24:29.256Z,101073.66
2023-06-13T13:26:57.318Z,101058.34
2023-06-13T13:29:27.263Z,101077.88
2023-06-13T13:31:53.962Z,101012.06
2023-06-13T13:34:24.274Z,101059.47
2023-06-13T13:36:53.786Z,101019.28
2023-06-13T13:39:20.668Z,101049.69
2023-06-13T13:41:47.314Z,101053.47
2023-06-13T13:44:14.175Z,101057.47
2023-06-13T13:46:40.804Z,101064.03
2023-06-13T13:49:07.619Z,101036.97
2023-06-13T13:51:34.553Z,101039.53
2023-06-13T13:54:01.231Z,101053.41
2023-06-13T13:56:28.244Z,101049.41
2023-06-13T13:58:54.886Z,100997.25
2023-06-13T14:01:22.003Z,101029.59
2023-06-13T14:03:49.742Z,101039.41
2023-06-13T14:06:16.705Z,100992.38
2023-06-13T14:08:43.533Z,101031.84
2023-06-13T14:11:10.133Z,101049.56
2023-06-13T14:13:37.012Z,101051.66
2023-06-13T14:16:04.804Z,101046.44
2023-06-13T14:18:31.658Z,101032.16
2023-06-13T14:20:59.066Z,101024.19
2023-06-13T14:23:25.723Z,101020.16
2023-06-13T14:25:52.391Z,101045.22
2023-06-13T14:28:19.136Z,101038.69
2023-06-13T14:30:46.017Z,101025.19
2023-06-13T14:33:13.176Z,101030.72
2023-06-13T14:35:39.887Z,100988.72
2023-06-13T14:38:06.650Z,101027.81
2023-06-13T14:40:33.760Z,100976.13
2023-06-13T14:43:01.191Z,101022.34
2023-06-13T14:45:28.168Z,101020.16
2023-06-13T14:47:55.632Z,101022.22
2023-06-13T14:50:22.808Z,101025.50
2023-06-13T14:52:49.452Z,101022.63
2023-06-13T14:55:16.385Z,101022.75
2023-06-13T14:57:43.147Z,101028.16
2023-06-13T15:00:11.351Z,100973.16
2023-06-13T15:02:38.788Z,101022.38
2023-06-13T15:05:06.326Z,101018.69
2023-06-13T15:07:32.995Z,101014.44
2023-06-13T15:10:00.079Z,101011.53
2023-06-13T15:12:27.766Z,100975.44
2023-06-13T15:14:54.549Z,101010.22
2023-06-13T15:17:21.408Z,101012.66
2023-06-13T15:19:48.007Z,101017.63
2023-06-13T15:22:14.599Z,101008.09
2023-06-13T15:24:41.192Z,101008.63
2023-06-13T15:27:08.658Z,101007.00
2023-06-13T15:29:35.521Z,100932.78
2023-06-13T15:32:02.231Z,100999.53
2023-06-13T15:34:30.575Z,100989.06
2023-06-13T15:36:57.312Z,100992.16
2023-06-13T15:39:25.256Z,100995.56
2023-06-13T15:41:51.866Z,100996.66
2023-06-13T15:44:18.599Z,101011.97
2023-06-13T15:46:46.346Z,101009.72
2023-06-13T15:49:13.297Z,100995.06
2023-06-13T15:51:39.913Z,100936.44
2023-06-13T15:54:06.554Z,100986.31
2023-06-13T15:56:33.160Z,101004.50
2023-06-13T15:59:00.403Z,100997.41
2023-06-13T16:01:28.288Z,100994.22
2023-06-13T16:03:55.340Z,100995.50
2023-06-13T16:06:23.960Z,100969.38
2023-06-13T16:08:50.612Z,100973.97
2023-06-13T16:11:17.374Z,100956.84
2023-06-13T16:13:43.988Z,100982.94
2023-06-13T16:16:10.580Z,100982.28
2023-06-13T16:18:38.510Z,100990.81
2023-06-13T16:21:05.510Z,100995.56
2023-06-13T16:23:32.265Z,100986.69
2023-06-13T16:25:59.031Z,100991.38
2023-06-13T16:28:25.835Z,100989.13
2023-06-13T16:30:53.013Z,100956.47
2023-06-13T16:33:20.063Z,100968.16
2023-06-13T16:35:47.043Z,100916.72
2023-06-13T16:38:15.457Z,100971.63
2023-06-13T16:40:42.918Z,100977.38
2023-06-13T16:43:10.225Z,100971.38
2023-06-13T16:45:37.124Z,100970.13
2023-06-13T16:48:04.360Z,100974.63
2023-06-13T16:50:30.994Z,100915.94
2023-06-13T16:52:58.363Z,100963.91
2023-06-13T16:55:24.932Z,100979.69
2023-06-13T16:57:51.534Z,100981.91
2023-06-13T17:00:18.381Z,100983.81
2023-06-13T17:02:45.042Z,100984.88
2023-06-13T17:05:11.977Z,100975.75
2023-06-13T17:07:40.934Z,100993.88
2023-06-13T17:10:08.751Z,100977.66
2023-06-13T17:12:41.971Z,100920.38
2023-06-13T17:15:09.444Z,100983.03
2023-06-13T17:17:36.111Z,100977.38
2023-06-13T17:20:03.816Z,100971.44
2023-06-13T17:22:30.559Z,100989.34
2023-06-13T17:24:57.239Z,100975.38
2023-06-13T17:27:23.902Z,100875.53
2023-06-13T17:29:50.517Z,100980.16
2023-06-13T17:32:17.269Z,100854.81
2023-06-13T17:34:44.751Z,100932.50
2023-06-13T17:37:11.337Z,100985.47
2023-06-13T17:39:38.565Z,100983.06
2023-06-13T17:42:06.378Z,100984.16
2023-06-13T17:44:32.933Z,101003.22
2023-06-13T17:46:59.562Z,100884.63
2023-06-13T17:49:26.557Z,101010.56
2023-06-13T17:51:53.260Z,101000.97
2023-06-13T17:54:22.733Z,101015.91
2023-06-13T17:56:49.521Z,100994.84
2023-06-13T17:59:16.394Z,100999.59
2023-06-13T18:01:43.753Z,101003.66
2023-06-13T18:04:10.568Z,101005.06
2023-06-13T18:06:37.800Z,100936.72
2023-06-13T18:09:05.462Z,100985.78
2023-06-13T18:11:32.120Z,100984.50
2023-06-13T18:13:58.830Z,100992.13
2023-06-13T18:16:26.017Z,100988.44
2023-06-13T18:18:53.185Z,100978.66
2023-06-13T18:21:19.779Z,101018.13
2023-06-13T18:23:47.192Z,100996.16
2023-06-13T18:26:13.760Z,101013.38
2023-06-13T18:28:40.980Z,101013.50
2023-06-13T18:31:08.933Z,101005.34
2023-06-13T18:33:35.611Z,100958.09
2023-06-13T18:36:02.333Z,101014.78
2023-06-13T18:38:29.060Z,101002.44
2023-06-13T18:40:55.746Z,100982.22
2023-06-13T18:43:22.451Z,101032.25
2023-06-13T18:45:48.998Z,100965.16
2023-06-13T18:48:15.636Z,101030.63
2023-06-13T18:50:42.302Z,101036.75
2023-06-13T18:53:10.133Z,101034.56
2023-06-13T18:55:36.762Z,101024.41
2023-06-13T18:58:03.368Z,101040.28
2023-06-13T19:00:34.037Z,101047.75
2023-06-13T19:03:03.756Z,101031.41
2023-06-13T19:05:33.254Z,101042.81
2023-06-13T19:08:00.185Z,101044.63
2023-06-13T19:10:26.728Z,101025.00
2023-06-13T19:12:53.352Z,100995.44
2023-06-13T19:15:20.837Z,101027.28
2023-06-13T19:17:47.477Z,101051.69
2023-06-13T19:20:15.527Z,101043.97
2023-06-13T19:22:42.815Z,101063.69
2023-06-13T19:25:14.231Z,101063.91
2023-06-13T19:27:41.661Z,101057.53
2023-06-13T19:30:08.877Z,101054.72
2023-06-13T19:32:41.203Z,101059.00
2023-06-13T19:35:24.909Z,101055.53
2023-06-13T19:37:51.617Z,101046.25
2023-06-13T19:40:19.945Z,101068.31
2023-06-13T19:42:47.864Z,101063.63
2023-06-13T19:45:15.164Z,101006.75
2023-06-13T19:47:42.445Z,101070.19
2023-06-13T19:50:09.864Z,101075.94
2023-06-13T19:52:36.420Z,101017.97
2023-06-13T19:55:03.134Z,101077.03
2023-06-13T19:57:31.721Z,101083.63
2023-06-13T19:59:58.340Z,100993.91
2023-06-13T20:02:24.961Z,101094.44
2023-06-13T20:04:51.915Z,101024.91
2023-06-13T20:07:18.612Z,101027.94
2023-06-13T20:09:45.290Z,101007.09
2023-06-13T20:12:12.674Z,101099.84
2023-06-13T20:14:39.352Z,101092.25
2023-06-13T20:17:07.129Z,101101.56
2023-06-13T20:19:33.981Z,101084.09
2023-06-13T20:22:00.554Z,101107.50
2023-06-13T20:24:27.236Z,101130.13
2023-06-13T20:26:53.976Z,101109.22
2023-06-13T20:29:21.110Z,101104.25
2023-06-13T20:31:48.518Z,101118.81
2023-06-13T20:34:17.446Z,101127.09
2023-06-13T20:36:44.199Z,101058.94
2023-06-13T20:39:10.869Z,101107.19
2023-06-13T20:41:38.116Z,101128.72
2023-06-13T20:44:08.215Z,101108.63
2023-06-13T20:46:39.122Z,101076.91
2023-06-13T20:49:05.709Z,101105.50
2023-06-13T20:51:36.324Z,101136.88
2023-06-13T20:54:03.195Z,101145.91
2023-06-13T20:56:29.834Z,101144.41
2023-06-13T20:58:58.474Z,101143.72
2023-06-13T21:01:27.678Z,101139.47
2023-06-13T21:03:54.371Z,101080.91
2023-06-13T21:06:20.997Z,101137.97
2023-06-13T21:08:49.039Z,101139.97
2023-06-13T21:11:15.725Z,101141.75
2023-06-13T21:13:42.342Z,101155.91
2023-06-13T21:16:09.651Z,101153.13
2023-06-13T21:18:36.563Z,101157.47
2023-06-13T21:21:03.186Z,101142.19
2023-06-13T21:23:29.920Z,101143.13
2023-06-13T21:25:56.766Z,101109.34
2023-06-13T21:28:23.397Z,101088.00
2023-06-13T21:30:50.031Z,101160.88
2023-06-13T21:33:19.024Z,101173.25
2023-06-13T21:35:46.605Z,101158.91
2023-06-13T21:38:13.195Z,101150.09
2023-06-13T21:40:39.803Z,101112.91
2023-06-13T21:43:06.502Z,101171.69
2023-06-13T21:45:33.195Z,101160.16
2023-06-13T21:48:00.625Z,101178.97
2023-06-13T21:50:27.503Z,101171.06
2023-06-13T21:52:54.299Z,101100.78
2023-06-13T21:55:21.349Z,101164.75
2023-06-13T21:57:48.296Z,101163.94
2023-06-13T22:00:17.349Z,101176.50
2023-06-13T22:02:45.817Z,101184.56
2023-06-13T22:05:13.372Z,101164.97
2023-06-13T22:07:40.603Z,101154.19
2023-06-13T22:10:10.876Z,101180.03
2023-06-13T22:12:37.497Z,101188.09
2023-06-13T22:15:04.511Z,101175.69
2023-06-13T22:17:31.577Z,101198.75
2023-06-13T22:20:01.186Z,101198.69
2023-06-13T22:22:30.686Z,101189.63
2023-06-13T22:24:59.656Z,101150.69
2023-06-13T22:27:26.582Z,101200.59
2023-06-13T22:29:53.504Z,101168.47
2023-06-13T22:32:20.352Z,101201.50
2023-06-13T22:34:47.128Z,101127.69
2023-06-13T22:37:13.940Z,101196.19
2023-06-13T22:39:40.853Z,101201.69
2023-06-13T22:42:08.746Z,101193.72
2023-06-13T22:44:36.153Z,101143.06
2023-06-13T22:47:03.640Z,101211.56
2023-06-13T22:49:30.353Z,101195.69
2023-06-13T22:51:57.593Z,101201.00
2023-06-13T22:54:24.497Z,101195.59
2023-06-13T22:56:51.523Z,101193.94
2023-06-13T22:59:18.950Z,101209.16
2023-06-13T23:01:46.592Z,101222.63
2023-06-13T23:04:13.483Z,101155.03
2023-06-13T23:06:42.155Z,101221.81
2023-06-13T23:09:09.916Z,101199.66
2023-06-13T23:11:37.710Z,101172.06
2023-06-13T23:14:04.302Z,101216.47
2023-06-13T23:16:31.045Z,101205.88
2023-06-13T23:18:58.216Z,101210.47
2023-06-13T23:21:25.881Z,101220.31
2023-06-13T23:23:52.607Z,101207.81
2023-06-13T23:26:19.225Z,101217.69
2023-06-13T23:28:47.322Z,101232.88
2023-06-13T23:31:14.528Z,101216.81
2023-06-13T23:33:44.359Z,101143.81
2023-06-13T23:36:10.968Z,101227.44
2023-06-13T23:38:38.544Z,101116.34
2023-06-13T23:41:05.437Z,101203.66
2023-06-13T23:43:32.139Z,101206.16
2023-06-13T23:46:01.530Z,101230.22
2023-06-13T23:48:29.071Z,101231.16
2023-06-13T23:50:55.780Z,101151.13
2023-06-13T23:53:22.369Z,101199.25
2023-06-13T23:55:49.062Z,101210.84
2023-06-13T23:58:15.833Z,101237.47
